Time;durP1;ratioP1;P1;durP2;ratioP2;P2;SDS_P1;SDS_P2;PMS_P1;PMS_P2;Temp;Humidity;BMP_temperature;BMP_pressure;BME280_temperature;BME280_humidity;BME280_pressure;Samples;Min_cycle;Max_cycle;Signal;HPM_P1;HPM_P2
2022/06/17 00:00:16;;;;;;;5.80;2.08;;;;;;;;;;5038016;28;20057;-78
2022/06/17 00:02:41;;;;;;;5.25;2.50;;;;;;;;;;5033609;28;20380;-78
2022/06/17 00:05:07;;;;;;;8.88;2.50;;;;;;;;;;5033471;28;20030;-78
2022/06/17 00:07:33;;;;;;;7.35;2.45;;;;;;;;;;5032414;28;20037;-78
2022/06/17 00:09:58;;;;;;;6.07;2.20;;;;;;;;;;5022005;28;20029;-78
2022/06/17 00:12:24;;;;;;;5.82;2.00;;;;;;;;;;5031973;28;20055;-78
2022/06/17 00:17:34;;;;;;;5.43;2.10;;;;;;;;;;5029223;28;20040;-78
2022/06/17 00:19:59;;;;;;;6.90;3.08;;;;;;;;;;5033393;28;20552;-78
2022/06/17 00:22:25;;;;;;;8.65;2.08;;;;;;;;;;5048460;28;20492;-78
2022/06/17 00:24:51;;;;;;;4.65;2.35;;;;;;;;;;5031831;28;20416;-78
2022/06/17 00:27:16;;;;;;;13.00;2.60;;;;;;;;;;5032115;28;20033;-78
2022/06/17 00:29:42;;;;;;;4.65;2.00;;;;;;;;;;5030818;28;20018;-78
2022/06/17 00:32:07;;;;;;;5.75;2.05;;;;;;;;;;5042160;28;20135;-78
2022/06/17 00:34:33;;;;;;;5.82;1.90;;;;;;;;;;5049334;28;20136;-78
2022/06/17 00:36:59;;;;;;;6.32;1.85;;;;;;;;;;5034124;28;20431;-78
2022/06/17 00:39:28;;;;;;;4.63;1.92;;;;;;;;;;5050527;28;20035;-78
2022/06/17 00:41:56;;;;;;;11.48;2.10;;;;;;;;;;5049244;28;20104;-78
2022/06/17 00:44:39;;;;;;;5.60;2.00;;;;;;;;;;5051365;28;20036;-78
2022/06/17 00:47:05;;;;;;;9.35;2.20;;;;;;;;;;5050310;28;20044;-78
2022/06/17 00:49:30;;;;;;;5.93;2.03;;;;;;;;;;5051397;28;20032;-78
2022/06/17 00:51:59;;;;;;;5.88;2.10;;;;;;;;;;5048574;28;20109;-78
2022/06/17 00:54:25;;;;;;;6.90;1.95;;;;;;;;;;5033310;28;20381;-78
2022/06/17 00:56:51;;;;;;;8.05;1.98;;;;;;;;;;5049502;28;20480;-78
2022/06/17 00:59:16;;;;;;;5.07;2.08;;;;;;;;;;5051118;28;20117;-78
2022/06/17 01:01:42;;;;;;;3.03;1.67;;;;;;;;;;5048234;28;20033;-79
2022/06/17 01:04:09;;;;;;;4.22;1.60;;;;;;;;;;5020646;28;20114;-78
2022/06/17 01:06:35;;;;;;;4.68;1.52;;;;;;;;;;5049760;28;20043;-78
2022/06/17 01:11:49;;;;;;;5.03;1.50;;;;;;;;;;5036402;28;20560;-79
2022/06/17 01:14:15;;;;;;;3.70;1.65;;;;;;;;;;5019333;28;20028;-79
2022/06/17 01:16:42;;;;;;;6.03;1.58;;;;;;;;;;5047719;28;20479;-78
2022/06/17 01:19:17;;;;;;;4.18;1.70;;;;;;;;;;5028291;28;20061;-78
2022/06/17 01:21:46;;;;;;;5.50;1.65;;;;;;;;;;5038821;28;20030;-77
2022/06/17 01:24:12;;;;;;;3.15;1.60;;;;;;;;;;5013622;28;20386;-78
2022/06/17 01:26:37;;;;;;;2.80;1.58;;;;;;;;;;5030850;28;20057;-78
2022/06/17 01:29:06;;;;;;;8.05;1.98;;;;;;;;;;5030394;28;20084;-79
2022/06/17 01:31:32;;;;;;;4.57;1.70;;;;;;;;;;5034766;28;20032;-79
2022/06/17 01:33:57;;;;;;;3.00;1.90;;;;;;;;;;5047778;28;20385;-78
2022/06/17 01:36:26;;;;;;;4.65;1.88;;;;;;;;;;5045755;28;20037;-78
2022/06/17 01:38:53;;;;;;;3.67;1.63;;;;;;;;;;5019391;28;20044;-78
2022/06/17 01:41:19;;;;;;;3.42;1.67;;;;;;;;;;5009628;28;20047;-78
2022/06/17 01:43:47;;;;;;;6.32;2.00;;;;;;;;;;5039560;28;20029;-78
2022/06/17 01:46:22;;;;;;;5.68;1.77;;;;;;;;;;5027631;28;20043;-77
2022/06/17 01:48:50;;;;;;;3.10;1.58;;;;;;;;;;5034306;28;20447;-79
2022/06/17 01:51:16;;;;;;;3.00;1.70;;;;;;;;;;5044215;28;20040;-79
2022/06/17 01:53:43;;;;;;;3.13;1.60;;;;;;;;;;5039694;28;20025;-79
2022/06/17 01:56:13;;;;;;;6.30;2.00;;;;;;;;;;5035691;28;20388;-79
2022/06/17 01:58:40;;;;;;;5.43;2.20;;;;;;;;;;5021399;28;20029;-81
2022/06/17 02:01:07;;;;;;;8.00;2.20;;;;;;;;;;5021889;28;20062;-79
2022/06/17 02:03:34;;;;;;;4.40;1.80;;;;;;;;;;5021169;28;20388;-79
2022/06/17 02:06:20;;;;;;;6.75;2.00;;;;;;;;;;5014921;28;20022;-79
2022/06/17 02:08:45;;;;;;;3.53;1.88;;;;;;;;;;5014907;28;20049;-78
2022/06/17 02:11:13;;;;;;;4.00;1.70;;;;;;;;;;5034522;28;20036;-78
2022/06/17 02:13:45;;;;;;;3.42;1.75;;;;;;;;;;5018606;28;20495;-78
2022/06/17 02:16:26;;;;;;;3.88;1.70;;;;;;;;;;5018245;28;20085;-79
2022/06/17 02:18:56;;;;;;;5.93;1.58;;;;;;;;;;5032319;28;20036;-78
2022/06/17 02:21:29;;;;;;;7.00;1.70;;;;;;;;;;5030486;28;20034;-78
2022/06/17 02:23:55;;;;;;;9.23;1.88;;;;;;;;;;5032365;28;20132;-78
2022/06/17 02:26:21;;;;;;;7.35;2.20;;;;;;;;;;5031164;28;20455;-78
2022/06/17 02:28:46;;;;;;;4.25;2.10;;;;;;;;;;5030897;28;20045;-78
2022/06/17 02:31:12;;;;;;;2.50;1.75;;;;;;;;;;5014317;28;20033;-78
2022/06/17 02:33:37;;;;;;;5.90;1.80;;;;;;;;;;5031611;28;20124;-78
2022/06/17 02:36:06;;;;;;;5.65;3.13;;;;;;;;;;5015274;28;20459;-78
2022/06/17 02:38:32;;;;;;;6.93;1.98;;;;;;;;;;5009629;28;20049;-78
2022/06/17 02:40:58;;;;;;;8.85;1.90;;;;;;;;;;5033748;28;20029;-78
2022/06/17 02:43:25;;;;;;;4.03;2.00;;;;;;;;;;5030809;28;20511;-78
2022/06/17 02:45:58;;;;;;;6.25;2.00;;;;;;;;;;5048282;28;20025;-78
2022/06/17 02:48:25;;;;;;;5.85;2.10;;;;;;;;;;5016652;28;20465;-78
2022/06/17 02:50:51;;;;;;;7.75;2.17;;;;;;;;;;5013103;28;20056;-77
2022/06/17 02:53:17;;;;;;;5.25;1.98;;;;;;;;;;5040434;28;20084;-79
2022/06/17 02:55:43;;;;;;;5.78;1.90;;;;;;;;;;5033851;28;20017;-78
2022/06/17 02:58:13;;;;;;;6.60;1.90;;;;;;;;;;5033237;28;20385;-78
2022/06/17 03:00:39;;;;;;;7.53;2.20;;;;;;;;;;5033045;28;20048;-78
2022/06/17 03:03:05;;;;;;;5.43;2.20;;;;;;;;;;5017134;28;20106;-77
2022/06/17 03:05:33;;;;;;;9.88;2.08;;;;;;;;;;5000455;28;20029;-78
2022/06/17 03:07:59;;;;;;;7.40;1.92;;;;;;;;;;5033530;28;20029;-78
2022/06/17 03:10:40;;;;;;;5.45;2.00;;;;;;;;;;5017379;28;20106;-78
2022/06/17 03:13:09;;;;;;;8.13;2.08;;;;;;;;;;5016944;28;20415;-78
2022/06/17 03:15:34;;;;;;;4.38;1.83;;;;;;;;;;5016735;28;20064;-78
2022/06/17 03:18:00;;;;;;;5.35;1.55;;;;;;;;;;5033378;28;20115;-79
2022/06/17 03:20:28;;;;;;;3.05;1.60;;;;;;;;;;5032816;28;20124;-78
2022/06/17 03:23:04;;;;;;;3.42;1.73;;;;;;;;;;5033088;28;20171;-78
2022/06/17 03:25:53;;;;;;;4.20;1.58;;;;;;;;;;5032985;28;20510;-78
2022/06/17 03:28:25;;;;;;;5.25;1.70;;;;;;;;;;5024093;28;20049;-78
2022/06/17 03:30:52;;;;;;;5.10;1.90;;;;;;;;;;5013919;28;20045;-78
2022/06/17 03:33:47;;;;;;;3.15;1.80;;;;;;;;;;5031249;28;20033;-79
2022/06/17 03:36:16;;;;;;;5.95;2.20;;;;;;;;;;5014620;28;20084;-80
2022/06/17 03:38:41;;;;;;;5.28;2.08;;;;;;;;;;5031103;28;20112;-80
2022/06/17 03:41:12;;;;;;;5.20;2.20;;;;;;;;;;5035643;28;20161;-80
2022/06/17 03:43:59;;;;;;;5.57;1.70;;;;;;;;;;5041483;28;20033;-79
2022/06/17 03:46:25;;;;;;;5.18;1.73;;;;;;;;;;5027598;28;20420;-80
2022/06/17 03:48:54;;;;;;;4.55;2.30;;;;;;;;;;5020213;28;20024;-79
2022/06/17 03:51:21;;;;;;;6.00;2.13;;;;;;;;;;5029974;28;20137;-78
2022/06/17 03:53:47;;;;;;;5.55;2.20;;;;;;;;;;5032709;28;20025;-79
2022/06/17 03:56:16;;;;;;;7.40;2.28;;;;;;;;;;5033291;28;20399;-77
2022/06/17 03:58:43;;;;;;;4.60;1.83;;;;;;;;;;5037330;28;20112;-78
2022/06/17 04:01:24;;;;;;;6.35;1.98;;;;;;;;;;5031348;28;20411;-80
2022/06/17 04:03:57;;;;;;;5.22;2.00;;;;;;;;;;5035745;28;20033;-80
2022/06/17 04:06:25;;;;;;;5.07;1.98;;;;;;;;;;5030240;28;20430;-80
2022/06/17 04:08:56;;;;;;;8.63;1.95;;;;;;;;;;5051020;28;20029;-78
2022/06/17 04:11:27;;;;;;;5.50;2.80;;;;;;;;;;5022287;28;20572;-80
2022/06/17 04:13:53;;;;;;;5.15;1.70;;;;;;;;;;5020468;28;20117;-79
2022/06/17 04:16:19;;;;;;;5.43;1.90;;;;;;;;;;5012714;28;20208;-79
2022/06/17 04:18:45;;;;;;;6.15;1.95;;;;;;;;;;5024854;28;20451;-80
2022/06/17 04:21:12;;;;;;;6.03;2.10;;;;;;;;;;5025413;28;20122;-79
2022/06/17 04:23:38;;;;;;;5.35;2.00;;;;;;;;;;5019045;28;20033;-79
2022/06/17 04:26:10;;;;;;;3.65;1.65;;;;;;;;;;5038784;28;20026;-80
2022/06/17 04:28:37;;;;;;;6.93;2.33;;;;;;;;;;5062633;28;20047;-80
2022/06/17 04:31:06;;;;;;;4.95;1.50;;;;;;;;;;5025618;28;20053;-80
2022/06/17 04:33:41;;;;;;;6.00;1.80;;;;;;;;;;5034042;28;20036;-81
2022/06/17 04:36:09;;;;;;;6.55;1.65;;;;;;;;;;5049305;28;20059;-79
2022/06/17 04:38:45;;;;;;;5.90;1.50;;;;;;;;;;5019849;28;20129;-80
2022/06/17 04:41:24;;;;;;;3.25;1.50;;;;;;;;;;5046917;28;20534;-80
2022/06/17 04:43:58;;;;;;;3.75;1.52;;;;;;;;;;5027673;28;20036;-80
2022/06/17 04:46:28;;;;;;;5.95;1.70;;;;;;;;;;5019539;28;20044;-81
2022/06/17 04:48:57;;;;;;;3.78;1.40;;;;;;;;;;5008161;28;20112;-80
2022/06/17 04:51:24;;;;;;;2.55;1.10;;;;;;;;;;5041427;28;20025;-79
2022/06/17 04:53:51;;;;;;;2.85;1.17;;;;;;;;;;5043566;28;20037;-80
2022/06/17 04:56:49;;;;;;;2.42;1.20;;;;;;;;;;5021848;28;20116;-80
2022/06/17 04:59:23;;;;;;;1.98;1.30;;;;;;;;;;5027451;28;20048;-81
2022/06/17 05:01:48;;;;;;;2.33;1.27;;;;;;;;;;5044324;28;20051;-79
2022/06/17 05:04:32;;;;;;;2.95;1.33;;;;;;;;;;5028915;28;20091;-80
2022/06/17 05:07:01;;;;;;;1.90;1.20;;;;;;;;;;5041970;28;20059;-80
2022/06/17 05:09:47;;;;;;;2.53;1.25;;;;;;;;;;5040423;28;20025;-80
2022/06/17 05:12:34;;;;;;;2.83;1.30;;;;;;;;;;5016739;28;20052;-82
2022/06/17 05:15:01;;;;;;;4.43;1.45;;;;;;;;;;5017889;28;20044;-81
2022/06/17 05:17:27;;;;;;;2.15;1.20;;;;;;;;;;5035769;28;20076;-81
2022/06/17 05:19:53;;;;;;;3.42;1.50;;;;;;;;;;5037027;28;20068;-80
2022/06/17 05:22:23;;;;;;;5.88;2.10;;;;;;;;;;5034124;28;20124;-81
2022/06/17 05:24:48;;;;;;;7.38;2.47;;;;;;;;;;5034087;28;20048;-80
2022/06/17 05:27:14;;;;;;;4.57;1.75;;;;;;;;;;5033788;28;20045;-82
2022/06/17 05:29:39;;;;;;;5.30;1.67;;;;;;;;;;5033815;28;20457;-81
2022/06/17 05:32:09;;;;;;;4.55;1.25;;;;;;;;;;5024003;28;20024;-82
2022/06/17 05:34:38;;;;;;;3.10;1.45;;;;;;;;;;5030660;28;20036;-83
2022/06/17 05:37:05;;;;;;;3.78;1.48;;;;;;;;;;5009580;28;20029;-83
2022/06/17 05:39:33;;;;;;;2.78;1.35;;;;;;;;;;5030546;28;20480;-79
2022/06/17 05:41:59;;;;;;;3.30;1.25;;;;;;;;;;5042927;28;20052;-80
2022/06/17 05:44:25;;;;;;;3.13;1.38;;;;;;;;;;5046033;28;20096;-80
2022/06/17 05:47:13;;;;;;;1.77;1.15;;;;;;;;;;5023489;28;20559;-79
2022/06/17 05:49:57;;;;;;;4.57;1.67;;;;;;;;;;5041919;28;20041;-81
2022/06/17 05:52:48;;;;;;;5.45;1.50;;;;;;;;;;5029796;28;20452;-80
2022/06/17 05:55:33;;;;;;;2.35;1.40;;;;;;;;;;5025116;28;20412;-80
2022/06/17 05:57:58;;;;;;;4.18;1.50;;;;;;;;;;5037387;28;20029;-81
2022/06/17 06:00:24;;;;;;;5.25;1.40;;;;;;;;;;5014667;28;20057;-82
2022/06/17 06:02:50;;;;;;;2.55;1.40;;;;;;;;;;5030261;28;20037;-80
2022/06/17 06:05:25;;;;;;;3.75;1.30;;;;;;;;;;5015253;28;20412;-79
2022/06/17 06:07:54;;;;;;;3.35;1.40;;;;;;;;;;5029709;28;20038;-82
2022/06/17 06:10:19;;;;;;;2.45;1.15;;;;;;;;;;5030500;28;20040;-81
2022/06/17 06:12:54;;;;;;;4.65;1.40;;;;;;;;;;5029922;28;20056;-81
2022/06/17 06:15:39;;;;;;;2.90;1.00;;;;;;;;;;5030323;28;20061;-85
2022/06/17 06:18:29;;;;;;;2.38;1.17;;;;;;;;;;5010205;28;20068;-81
2022/06/17 06:20:55;;;;;;;2.35;1.10;;;;;;;;;;5030015;28;20025;-82
2022/06/17 06:23:24;;;;;;;3.47;1.10;;;;;;;;;;5006240;28;20025;-83
2022/06/17 06:25:50;;;;;;;4.53;1.20;;;;;;;;;;5013570;28;20026;-85
2022/06/17 06:28:20;;;;;;;2.28;1.20;;;;;;;;;;5014547;28;20484;-81
2022/06/17 06:30:53;;;;;;;2.58;1.20;;;;;;;;;;5028390;28;20044;-80
2022/06/17 06:33:18;;;;;;;2.38;1.13;;;;;;;;;;5041011;28;20120;-81
2022/06/17 06:35:44;;;;;;;5.10;1.52;;;;;;;;;;5038490;28;20024;-80
2022/06/17 06:38:10;;;;;;;1.95;1.10;;;;;;;;;;5027513;28;20056;-81
2022/06/17 06:40:38;;;;;;;3.20;1.25;;;;;;;;;;5039724;28;20503;-80
2022/06/17 06:43:09;;;;;;;2.95;1.10;;;;;;;;;;5040722;28;20128;-80
2022/06/17 06:45:53;;;;;;;1.92;1.00;;;;;;;;;;5038397;28;20051;-80
2022/06/17 06:48:19;;;;;;;2.22;1.10;;;;;;;;;;5042244;28;20455;-82
2022/06/17 06:50:45;;;;;;;2.45;1.00;;;;;;;;;;5040618;28;20492;-80
2022/06/17 06:53:10;;;;;;;1.73;1.10;;;;;;;;;;5037964;28;20037;-84
2022/06/17 06:55:36;;;;;;;1.73;1.10;;;;;;;;;;4997536;28;20036;-81
2022/06/17 06:58:03;;;;;;;2.13;1.27;;;;;;;;;;5027015;28;20480;-81
2022/06/17 07:00:33;;;;;;;2.50;1.27;;;;;;;;;;5037696;28;20053;-82
2022/06/17 07:02:59;;;;;;;1.77;1.00;;;;;;;;;;5035632;28;20488;-80
2022/06/17 07:05:24;;;;;;;2.53;1.00;;;;;;;;;;5040832;28;20040;-79
2022/06/17 07:07:50;;;;;;;1.65;1.00;;;;;;;;;;5029552;28;20595;-81
2022/06/17 07:10:16;;;;;;;2.85;1.30;;;;;;;;;;5029432;28;20029;-82
2022/06/17 07:12:42;;;;;;;1.73;0.93;;;;;;;;;;5040649;28;20492;-81
2022/06/17 07:15:08;;;;;;;2.83;1.02;;;;;;;;;;5041543;28;20029;-82
2022/06/17 07:17:33;;;;;;;2.40;1.10;;;;;;;;;;5037115;28;20396;-81
2022/06/17 07:19:59;;;;;;;1.42;0.90;;;;;;;;;;5041217;28;20063;-80
2022/06/17 07:22:24;;;;;;;3.78;1.00;;;;;;;;;;5037844;28;20037;-81
2022/06/17 07:24:50;;;;;;;1.67;0.90;;;;;;;;;;5037770;28;20029;-81
2022/06/17 07:27:15;;;;;;;3.83;0.93;;;;;;;;;;5041024;28;20530;-81
2022/06/17 07:29:41;;;;;;;1.45;1.00;;;;;;;;;;5019263;28;20102;-81
2022/06/17 07:32:07;;;;;;;3.05;1.00;;;;;;;;;;5031224;28;20041;-81
2022/06/17 07:34:33;;;;;;;2.13;0.98;;;;;;;;;;5040488;28;20037;-83
2022/06/17 07:39:54;;;;;;;3.17;1.00;;;;;;;;;;5035428;28;20040;-81
2022/06/17 07:42:21;;;;;;;2.22;1.10;;;;;;;;;;5033961;28;20373;-81
2022/06/17 07:44:46;;;;;;;2.20;1.10;;;;;;;;;;5034243;28;20025;-81
2022/06/17 07:47:15;;;;;;;1.83;1.00;;;;;;;;;;5044050;28;20048;-81
2022/06/17 07:49:40;;;;;;;3.22;1.00;;;;;;;;;;5032652;28;20033;-81
2022/06/17 07:52:06;;;;;;;1.98;0.93;;;;;;;;;;5034108;28;20034;-80
2022/06/17 07:54:31;;;;;;;4.72;1.00;;;;;;;;;;5033387;28;20370;-81
2022/06/17 07:56:57;;;;;;;1.45;0.80;;;;;;;;;;5033999;28;20036;-83
2022/06/17 07:59:22;;;;;;;1.80;0.90;;;;;;;;;;5022245;28;20072;-81
2022/06/17 08:01:48;;;;;;;3.50;1.05;;;;;;;;;;5037644;28;20132;-81
2022/06/17 08:04:13;;;;;;;1.45;0.93;;;;;;;;;;5033766;28;20083;-82
2022/06/17 08:06:39;;;;;;;4.20;1.00;;;;;;;;;;5033773;28;20041;-82
2022/06/17 08:09:04;;;;;;;2.45;1.00;;;;;;;;;;5033382;28;20033;-81
2022/06/17 08:11:30;;;;;;;1.52;0.98;;;;;;;;;;5034164;28;20045;-84
2022/06/17 08:13:55;;;;;;;2.88;0.90;;;;;;;;;;5030292;28;20037;-81
2022/06/17 08:16:20;;;;;;;1.88;0.80;;;;;;;;;;5033491;28;20029;-81
2022/06/17 08:18:46;;;;;;;1.48;0.90;;;;;;;;;;5038532;28;20043;-80
2022/06/17 08:21:11;;;;;;;2.38;1.00;;;;;;;;;;5026898;28;20040;-81
2022/06/17 08:23:37;;;;;;;1.30;0.90;;;;;;;;;;5033720;28;20102;-81
2022/06/17 08:26:02;;;;;;;3.55;0.90;;;;;;;;;;5024948;28;20532;-83
2022/06/17 08:28:28;;;;;;;1.10;0.75;;;;;;;;;;5032465;28;20029;-82
2022/06/17 08:30:55;;;;;;;2.60;1.17;;;;;;;;;;5028065;28;20077;-83
2022/06/17 08:33:27;;;;;;;3.17;0.90;;;;;;;;;;5047217;28;20025;-82
2022/06/17 08:35:52;;;;;;;2.92;1.17;;;;;;;;;;5042177;28;20042;-85
2022/06/17 08:38:19;;;;;;;2.20;0.82;;;;;;;;;;5046831;28;20022;-81
2022/06/17 08:40:44;;;;;;;1.20;0.90;;;;;;;;;;5049158;28;20064;-81
2022/06/17 08:43:27;;;;;;;5.00;3.83;;;;;;;;;;5048285;28;20041;-81
2022/06/17 08:45:52;;;;;;;2.30;1.17;;;;;;;;;;5049110;28;20040;-81
2022/06/17 08:48:25;;;;;;;2.35;0.90;;;;;;;;;;5047608;28;20433;-82
2022/06/17 08:50:51;;;;;;;2.03;0.85;;;;;;;;;;5037440;28;20064;-81
2022/06/17 08:53:21;;;;;;;1.88;0.80;;;;;;;;;;5035776;28;20558;-82
2022/06/17 08:56:05;;;;;;;3.50;0.90;;;;;;;;;;5036640;28;20449;-82
2022/06/17 08:58:36;;;;;;;2.17;0.90;;;;;;;;;;5043972;28;20068;-80
2022/06/17 09:01:24;;;;;;;3.00;0.98;;;;;;;;;;5045047;28;20656;-81
2022/06/17 09:03:50;;;;;;;2.22;0.80;;;;;;;;;;5035065;28;20499;-82
2022/06/17 09:06:21;;;;;;;2.63;1.00;;;;;;;;;;5038023;28;20025;-82
2022/06/17 09:08:47;;;;;;;2.22;0.90;;;;;;;;;;5036353;28;20135;-81
2022/06/17 09:11:20;;;;;;;5.32;1.63;;;;;;;;;;5032758;28;20071;-82
2022/06/17 09:13:58;;;;;;;1.33;0.90;;;;;;;;;;5031240;28;20400;-84
2022/06/17 09:16:34;;;;;;;3.30;1.23;;;;;;;;;;5032265;28;20045;-82
2022/06/17 09:19:03;;;;;;;3.08;1.10;;;;;;;;;;5015152;28;20075;-81
2022/06/17 09:21:52;;;;;;;5.30;1.10;;;;;;;;;;5031200;28;20025;-80
2022/06/17 09:24:19;;;;;;;2.75;1.33;;;;;;;;;;5020871;28;20041;-81
2022/06/17 09:26:46;;;;;;;2.45;1.10;;;;;;;;;;5032808;28;20033;-82
2022/06/17 09:29:13;;;;;;;4.68;1.70;;;;;;;;;;5033229;28;20029;-82
2022/06/17 09:31:41;;;;;;;4.40;1.70;;;;;;;;;;5038875;28;20399;-83
2022/06/17 09:34:11;;;;;;;4.68;1.50;;;;;;;;;;5051123;28;20040;-82
2022/06/17 09:36:39;;;;;;;2.63;1.10;;;;;;;;;;5032012;28;20028;-83
2022/06/17 09:39:09;;;;;;;3.38;1.05;;;;;;;;;;5049968;28;20024;-82
2022/06/17 09:41:36;;;;;;;4.60;1.25;;;;;;;;;;5048719;28;20167;-82
2022/06/17 09:44:07;;;;;;;4.10;1.30;;;;;;;;;;5031473;28;20025;-83
2022/06/17 09:46:40;;;;;;;2.83;1.50;;;;;;;;;;5049740;28;20047;-81
2022/06/17 09:49:08;;;;;;;1.98;0.90;;;;;;;;;;5049332;28;20040;-81
2022/06/17 09:51:49;;;;;;;3.17;1.30;;;;;;;;;;5049791;28;20115;-82
2022/06/17 09:54:23;;;;;;;2.55;1.00;;;;;;;;;;5051170;28;20079;-82
2022/06/17 09:56:51;;;;;;;1.60;1.05;;;;;;;;;;5050016;28;20538;-84
2022/06/17 09:59:19;;;;;;;1.75;1.20;;;;;;;;;;5050442;28;21921;-84
2022/06/17 10:01:44;;;;;;;1.98;1.15;;;;;;;;;;5047977;28;20041;-83
2022/06/17 10:04:10;;;;;;;2.47;1.10;;;;;;;;;;5050572;28;20526;-82
2022/06/17 10:06:39;;;;;;;2.67;1.10;;;;;;;;;;5051040;28;20039;-82
2022/06/17 10:09:12;;;;;;;2.63;1.00;;;;;;;;;;5049148;28;20565;-83
2022/06/17 10:11:37;;;;;;;3.15;1.30;;;;;;;;;;5050324;28;20439;-83
2022/06/17 10:14:03;;;;;;;3.45;1.30;;;;;;;;;;5048907;28;20104;-82
2022/06/17 10:19:13;;;;;;;4.63;1.15;;;;;;;;;;5045497;28;20060;-83
2022/06/17 10:21:42;;;;;;;3.42;1.58;;;;;;;;;;5040250;28;20026;-83
2022/06/17 10:24:08;;;;;;;3.70;1.10;;;;;;;;;;5013785;28;20046;-82
2022/06/17 10:26:52;;;;;;;3.55;1.25;;;;;;;;;;5049851;28;20123;-83
2022/06/17 10:29:25;;;;;;;2.17;1.30;;;;;;;;;;5043801;28;20044;-82
2022/06/17 10:31:51;;;;;;;2.53;1.13;;;;;;;;;;5025155;28;20064;-84
2022/06/17 10:34:49;;;;;;;3.05;1.20;;;;;;;;;;5039234;28;20064;-82
2022/06/17 10:37:14;;;;;;;2.45;1.33;;;;;;;;;;5014081;28;20076;-83
2022/06/17 10:39:40;;;;;;;4.45;1.35;;;;;;;;;;5047161;28;20048;-82
2022/06/17 10:42:06;;;;;;;1.73;1.10;;;;;;;;;;5048423;28;20033;-83
2022/06/17 10:44:32;;;;;;;4.22;1.48;;;;;;;;;;5047541;28;20430;-83
2022/06/17 10:47:16;;;;;;;2.90;1.20;;;;;;;;;;5041081;28;20029;-82
2022/06/17 10:49:46;;;;;;;1.77;1.15;;;;;;;;;;5040075;28;20045;-81
2022/06/17 10:52:15;;;;;;;2.20;1.17;;;;;;;;;;5043220;28;20029;-82
2022/06/17 10:54:40;;;;;;;2.83;1.10;;;;;;;;;;5047191;28;20039;-82
2022/06/17 10:57:21;;;;;;;3.85;1.40;;;;;;;;;;5030409;28;20041;-81
2022/06/17 10:59:46;;;;;;;2.30;1.25;;;;;;;;;;5025071;28;20419;-82
2022/06/17 11:02:26;;;;;;;0.93;0.75;;;;;;;;;;5037466;28;20121;-82
2022/06/17 11:04:54;;;;;;;2.30;1.23;;;;;;;;;;5044149;28;20033;-80
2022/06/17 11:07:27;;;;;;;2.92;1.10;;;;;;;;;;5036742;28;20030;-82
2022/06/17 11:09:54;;;;;;;3.58;1.05;;;;;;;;;;5034870;28;20127;-82
2022/06/17 11:12:21;;;;;;;2.03;0.90;;;;;;;;;;5038474;28;20026;-82
2022/06/17 11:14:47;;;;;;;2.67;1.10;;;;;;;;;;5035935;28;20403;-82
2022/06/17 11:17:12;;;;;;;2.33;1.10;;;;;;;;;;5034081;28;20028;-81
2022/06/17 11:19:39;;;;;;;4.82;1.10;;;;;;;;;;5042885;28;20108;-81
2022/06/17 11:22:05;;;;;;;2.97;1.15;;;;;;;;;;5039827;28;20025;-83
2022/06/17 11:24:32;;;;;;;2.88;1.00;;;;;;;;;;5039783;28;20044;-82
2022/06/17 11:27:00;;;;;;;3.53;1.10;;;;;;;;;;5043834;28;20025;-80
2022/06/17 11:29:33;;;;;;;2.00;1.30;;;;;;;;;;5026291;28;20134;-83
2022/06/17 11:31:59;;;;;;;5.30;1.30;;;;;;;;;;5042383;28;20024;-82
2022/06/17 11:34:25;;;;;;;3.75;0.98;;;;;;;;;;5051613;28;20472;-82
2022/06/17 11:37:27;;;;;;;2.00;1.00;;;;;;;;;;5052975;28;20567;-81
2022/06/17 11:40:21;;;;;;;2.67;0.88;;;;;;;;;;5016297;28;20038;-82
2022/06/17 11:42:47;;;;;;;2.95;1.05;;;;;;;;;;5017272;28;20104;-83
2022/06/17 11:45:16;;;;;;;2.40;1.10;;;;;;;;;;5034485;28;20472;-82
2022/06/17 11:47:42;;;;;;;4.72;1.40;;;;;;;;;;5034491;28;20109;-82
2022/06/17 11:50:12;;;;;;;5.55;1.27;;;;;;;;;;5034756;28;20033;-82
2022/06/17 11:52:38;;;;;;;6.63;2.00;;;;;;;;;;5035107;28;20116;-82
2022/06/17 11:55:04;;;;;;;2.42;1.30;;;;;;;;;;5033382;28;20145;-82
2022/06/17 11:57:30;;;;;;;6.22;1.60;;;;;;;;;;5034715;28;20120;-84
2022/06/17 11:59:59;;;;;;;2.72;1.42;;;;;;;;;;5016231;28;20060;-81
2022/06/17 12:02:25;;;;;;;3.15;1.27;;;;;;;;;;5033998;28;20064;-81
2022/06/17 12:04:52;;;;;;;3.75;1.55;;;;;;;;;;5033031;28;20480;-82
2022/06/17 12:07:23;;;;;;;2.95;1.52;;;;;;;;;;5032353;28;20048;-82
2022/06/17 12:09:49;;;;;;;2.65;1.40;;;;;;;;;;5033863;28;20385;-83
2022/06/17 12:12:15;;;;;;;3.40;1.20;;;;;;;;;;5017539;28;20033;-82
2022/06/17 12:14:43;;;;;;;2.53;1.30;;;;;;;;;;5043904;28;20063;-82
2022/06/17 12:17:10;;;;;;;2.25;1.00;;;;;;;;;;5033841;28;20029;-83
2022/06/17 12:19:35;;;;;;;3.38;1.17;;;;;;;;;;5031231;28;20033;-83
2022/06/17 12:22:04;;;;;;;2.10;1.13;;;;;;;;;;5041661;28;20025;-82
2022/06/17 12:24:41;;;;;;;2.58;1.00;;;;;;;;;;5032993;28;20059;-81
2022/06/17 12:27:07;;;;;;;3.17;1.00;;;;;;;;;;5033372;28;20480;-82
2022/06/17 12:29:35;;;;;;;2.05;1.10;;;;;;;;;;5032708;28;20026;-82
2022/06/17 12:32:19;;;;;;;6.22;1.20;;;;;;;;;;5041664;28;20029;-84
2022/06/17 12:35:03;;;;;;;3.50;1.55;;;;;;;;;;5051228;28;20471;-82
2022/06/17 12:37:32;;;;;;;2.15;1.52;;;;;;;;;;5051119;28;20086;-81
2022/06/17 12:40:17;;;;;;;4.38;1.58;;;;;;;;;;5037858;28;20017;-81
2022/06/17 12:42:47;;;;;;;4.15;1.30;;;;;;;;;;5041876;28;20064;-82
2022/06/17 12:45:18;;;;;;;2.03;1.20;;;;;;;;;;5047946;28;20091;-82
2022/06/17 12:47:59;;;;;;;1.98;1.20;;;;;;;;;;5049554;28;20041;-81
2022/06/17 12:53:24;;;;;;;3.15;1.38;;;;;;;;;;5036612;28;20488;-81
2022/06/17 12:56:04;;;;;;;3.63;1.00;;;;;;;;;;5036230;28;20074;-82
2022/06/17 12:58:39;;;;;;;2.22;1.05;;;;;;;;;;5043925;28;20469;-81
2022/06/17 13:01:20;;;;;;;1.95;1.15;;;;;;;;;;5029217;28;20060;-82
2022/06/17 13:03:53;;;;;;;5.18;1.10;;;;;;;;;;5034737;28;20083;-84
2022/06/17 13:06:38;;;;;;;1.90;1.10;;;;;;;;;;5031688;28;20144;-81
2022/06/17 13:09:07;;;;;;;5.85;2.97;;;;;;;;;;5040376;28;20131;-81
2022/06/17 13:11:35;;;;;;;3.13;1.20;;;;;;;;;;5048264;28;20079;-82
2022/06/17 13:14:03;;;;;;;1.88;1.10;;;;;;;;;;5042485;28;20037;-81
2022/06/17 13:16:45;;;;;;;1.98;1.02;;;;;;;;;;5048027;28;20025;-82
2022/06/17 13:19:20;;;;;;;2.20;1.20;;;;;;;;;;5042472;28;20033;-82
2022/06/17 13:22:04;;;;;;;2.00;0.90;;;;;;;;;;5047205;28;20036;-81
2022/06/17 13:24:48;;;;;;;2.75;1.27;;;;;;;;;;5041973;28;20442;-82
2022/06/17 13:27:18;;;;;;;2.05;1.10;;;;;;;;;;5016909;28;20038;-82
2022/06/17 13:29:56;;;;;;;1.73;0.90;;;;;;;;;;5041348;28;20021;-81
2022/06/17 13:32:32;;;;;;;3.35;1.15;;;;;;;;;;5041400;28;20037;-80
2022/06/17 13:34:57;;;;;;;;;;;;;;;;;;5048735;28;20033;-81
2022/06/17 13:37:23;;;;;;;2.33;0.97;;;;;;;;;;5049413;28;19909;-81
2022/06/17 13:39:50;;;;;;;2.80;0.85;;;;;;;;;;5036053;28;20029;-82
2022/06/17 13:42:16;;;;;;;2.95;0.98;;;;;;;;;;5033018;28;20021;-81
2022/06/17 13:44:51;;;;;;;2.55;0.93;;;;;;;;;;5031695;28;20044;-82
2022/06/17 13:47:28;;;;;;;2.58;1.23;;;;;;;;;;5049258;28;20033;-81
2022/06/17 13:50:03;;;;;;;4.95;1.25;;;;;;;;;;5049825;28;20040;-81
2022/06/17 13:52:40;;;;;;;1.65;1.10;;;;;;;;;;5049486;28;20033;-81
2022/06/17 13:55:06;;;;;;;2.97;1.05;;;;;;;;;;5047938;28;20033;-81
2022/06/17 13:57:37;;;;;;;5.05;1.48;;;;;;;;;;5050766;28;20039;-81
2022/06/17 14:00:22;;;;;;;4.38;1.20;;;;;;;;;;5047573;28;20508;-81
2022/06/17 14:02:55;;;;;;;2.47;1.10;;;;;;;;;;5029729;28;20049;-82
2022/06/17 14:05:20;;;;;;;3.88;1.38;;;;;;;;;;5045391;28;20017;-81
2022/06/17 14:07:49;;;;;;;2.15;1.20;;;;;;;;;;5037135;28;20052;-82
2022/06/17 14:10:33;;;;;;;1.65;1.00;;;;;;;;;;5046674;28;20045;-81
2022/06/17 14:12:59;;;;;;;2.22;1.33;;;;;;;;;;5045084;28;20027;-82
2022/06/17 14:15:28;;;;;;;2.80;1.38;;;;;;;;;;5012672;28;20111;-83
2022/06/17 14:17:54;;;;;;;4.20;1.40;;;;;;;;;;5041621;28;20136;-82
2022/06/17 14:20:23;;;;;;;2.20;1.20;;;;;;;;;;5037002;28;20036;-82
2022/06/17 14:23:08;;;;;;;4.28;1.30;;;;;;;;;;5044274;28;20111;-81
2022/06/17 14:26:03;;;;;;;6.55;1.98;;;;;;;;;;5043579;28;20037;-82
2022/06/17 14:28:32;;;;;;;2.67;1.20;;;;;;;;;;5034562;28;20438;-82
2022/06/17 14:31:12;;;;;;;2.03;1.20;;;;;;;;;;5012860;28;20026;-82
2022/06/17 14:33:57;;;;;;;3.83;1.58;;;;;;;;;;5045041;28;20079;-80
2022/06/17 14:36:41;;;;;;;5.15;1.52;;;;;;;;;;5029746;28;20400;-82
2022/06/17 14:39:08;;;;;;;3.00;1.20;;;;;;;;;;5030347;28;20118;-81
2022/06/17 14:44:27;;;;;;;3.25;1.50;;;;;;;;;;5032506;28;20037;-82
2022/06/17 14:47:11;;;;;;;5.15;1.52;;;;;;;;;;5041414;28;20025;-81
2022/06/17 14:49:44;;;;;;;3.60;1.70;;;;;;;;;;5047401;28;20086;-81
2022/06/17 14:52:23;;;;;;;3.75;1.88;;;;;;;;;;5040866;28;20037;-81
2022/06/17 14:54:58;;;;;;;6.60;2.13;;;;;;;;;;5028029;28;20044;-80
2022/06/17 14:57:24;;;;;;;4.82;1.75;;;;;;;;;;5040966;28;20029;-80
2022/06/17 14:59:49;;;;;;;4.25;1.60;;;;;;;;;;5039231;28;20049;-81
2022/06/17 15:02:15;;;;;;;4.38;1.80;;;;;;;;;;5040428;28;20436;-81
2022/06/17 15:04:41;;;;;;;5.82;1.90;;;;;;;;;;5054546;28;20076;-81
2022/06/17 15:07:27;;;;;;;5.57;2.10;;;;;;;;;;5037736;28;20045;-80
2022/06/17 15:09:57;;;;;;;3.47;2.00;;;;;;;;;;5046438;28;20049;-81
2022/06/17 15:12:33;;;;;;;4.03;1.90;;;;;;;;;;5028834;28;20704;-81
2022/06/17 15:15:00;;;;;;;3.50;1.90;;;;;;;;;;5045736;28;20033;-79
2022/06/17 15:17:37;;;;;;;4.90;2.25;;;;;;;;;;5030609;28;20025;-80